Time;durP1;ratioP1;P1;durP2;ratioP2;P2;SDS_P1;SDS_P2;PMS_P1;PMS_P2;Temp;Humidity;BMP_temperature;BMP_pressure;BME280_temperature;BME280_humidity;BME280_pressure;Samples;Min_cycle;Max_cycle;Signal;HPM_P1;HPM_P2
2022/04/07 00:00:37;;;;;;;7.07;3.93;;;;;;;6.56;100.00;98878.94;5037410;28;20200;-73
2022/04/07 00:03:03;;;;;;;7.63;4.13;;;;;;;6.57;100.00;98870.28;5031372;28;20635;-73
2022/04/07 00:05:29;;;;;;;5.97;4.23;;;;;;;6.57;100.00;98873.69;5028792;28;20238;-72
2022/04/07 00:07:56;;;;;;;6.07;4.30;;;;;;;6.59;100.00;98866.72;5026317;28;20204;-73
2022/04/07 00:10:22;;;;;;;6.70;3.77;;;;;;;6.61;100.00;98867.53;5027663;28;20584;-72
2022/04/07 00:12:48;;;;;;;4.53;3.80;;;;;;;6.64;100.00;98874.31;5026075;28;20195;-72
2022/04/07 00:15:15;;;;;;;5.27;3.77;;;;;;;6.65;100.00;98868.25;5028300;28;20678;-72
2022/04/07 00:17:42;;;;;;;7.23;3.60;;;;;;;6.63;100.00;98864.84;5026067;28;20199;-72
2022/04/07 00:20:09;;;;;;;4.17;3.60;;;;;;;6.62;100.00;98856.25;5034152;28;20202;-71
2022/04/07 00:22:35;;;;;;;5.20;2.70;;;;;;;6.57;100.00;98859.91;5026427;28;20211;-73
2022/04/07 00:25:03;;;;;;;5.17;3.27;;;;;;;6.56;100.00;98864.25;5023357;28;20220;-71
2022/04/07 00:27:29;;;;;;;5.37;2.93;;;;;;;6.52;100.00;98859.25;5019451;28;20231;-73
2022/04/07 00:29:56;;;;;;;4.67;3.30;;;;;;;6.48;100.00;98848.16;5019373;28;20204;-73
2022/04/07 00:32:23;;;;;;;3.53;2.83;;;;;;;6.46;100.00;98847.38;5023368;28;20206;-72
2022/04/07 00:34:54;;;;;;;4.27;2.80;;;;;;;6.48;100.00;98847.31;5027165;28;20224;-72
2022/04/07 00:37:22;;;;;;;4.90;2.90;;;;;;;6.44;100.00;98841.41;5021552;28;20210;-72
2022/04/07 00:39:49;;;;;;;5.60;3.23;;;;;;;6.42;100.00;98844.06;5028661;28;20204;-72
2022/04/07 00:42:15;;;;;;;6.97;3.20;;;;;;;6.41;100.00;98836.34;5029065;28;20196;-71
2022/04/07 00:44:43;;;;;;;3.10;2.80;;;;;;;6.44;100.00;98837.09;5004285;28;20741;-73
2022/04/07 00:47:09;;;;;;;3.97;3.30;;;;;;;6.46;100.00;98826.66;5018570;28;20199;-72
2022/04/07 00:49:36;;;;;;;5.33;3.13;;;;;;;6.43;100.00;98829.38;5001146;28;20578;-71
2022/04/07 00:52:05;;;;;;;4.53;2.80;;;;;;;6.41;100.00;98828.59;5020918;28;20661;-72
2022/04/07 00:54:32;;;;;;;3.93;2.70;;;;;;;6.40;100.00;98829.47;5026024;28;20310;-72
2022/04/07 00:57:01;;;;;;;7.00;3.20;;;;;;;6.42;100.00;98827.66;5023584;28;20210;-72
2022/04/07 00:59:28;;;;;;;4.87;2.70;;;;;;;6.47;100.00;98815.41;5025580;28;20219;-72
2022/04/07 01:01:55;;;;;;;3.23;2.17;;;;;;;6.51;100.00;98816.97;5030331;28;20540;-72
2022/04/07 01:04:23;;;;;;;2.43;2.10;;;;;;;6.47;100.00;98822.31;5033012;28;20285;-71
2022/04/07 01:06:50;;;;;;;4.03;2.77;;;;;;;6.39;100.00;98826.06;5022968;28;20201;-72
2022/04/07 01:09:19;;;;;;;5.30;2.50;;;;;;;6.35;100.00;98808.97;5026828;28;20817;-72
2022/04/07 01:11:46;;;;;;;2.83;2.50;;;;;;;6.35;100.00;98814.13;5020078;28;20258;-72
2022/04/07 01:14:13;;;;;;;4.20;2.30;;;;;;;6.30;100.00;98813.47;5028615;28;20604;-71
2022/04/07 01:16:40;;;;;;;4.30;2.50;;;;;;;6.28;100.00;98804.91;5024838;28;20262;-72
2022/04/07 01:19:07;;;;;;;2.40;2.20;;;;;;;6.24;100.00;98805.91;5025459;28;20379;-72
2022/04/07 01:21:36;;;;;;;2.37;2.10;;;;;;;6.23;100.00;98805.06;5024101;28;20216;-72
2022/04/07 01:24:04;;;;;;;3.37;2.50;;;;;;;6.22;100.00;98787.84;5027852;28;20235;-72
2022/04/07 01:26:37;;;;;;;2.80;2.43;;;;;;;6.21;100.00;98799.13;5031793;28;20208;-72
2022/04/07 01:29:04;;;;;;;5.13;2.10;;;;;;;6.20;100.00;98791.41;5032357;28;20678;-72
2022/04/07 01:31:31;;;;;;;5.33;2.30;;;;;;;6.15;100.00;98788.16;5028606;28;20223;-72
2022/04/07 01:33:58;;;;;;;4.50;2.33;;;;;;;6.13;100.00;98788.19;5023176;28;20799;-72
2022/04/07 01:36:27;;;;;;;3.93;2.57;;;;;;;6.07;100.00;98788.44;5023612;28;20215;-72
2022/04/07 01:38:54;;;;;;;2.90;2.43;;;;;;;6.07;100.00;98780.69;5030570;28;20984;-72
2022/04/07 01:41:21;;;;;;;2.63;2.30;;;;;;;6.01;100.00;98778.31;5029831;28;20318;-72
2022/04/07 01:43:51;;;;;;;2.80;2.50;;;;;;;6.14;100.00;98774.38;5033388;28;20220;-72
2022/04/07 01:46:20;;;;;;;3.53;2.20;;;;;;;6.08;100.00;98772.00;5024480;28;20855;-72
2022/04/07 01:48:47;;;;;;;2.73;2.40;;;;;;;6.17;100.00;98768.22;5027229;28;20788;-72
2022/04/07 01:51:14;;;;;;;3.97;2.20;;;;;;;6.15;100.00;98763.09;5029481;28;20205;-72
2022/04/07 01:53:41;;;;;;;4.17;2.50;;;;;;;6.13;100.00;98762.31;5029432;28;20581;-72
2022/04/07 01:56:09;;;;;;;3.33;2.53;;;;;;;6.05;100.00;98757.44;5014186;28;20709;-71
2022/04/07 01:58:36;;;;;;;4.77;2.20;;;;;;;5.98;100.00;98750.81;5027008;28;20695;-72
2022/04/07 02:01:04;;;;;;;5.80;2.70;;;;;;;5.94;100.00;98756.13;5029439;28;20197;-72
2022/04/07 02:03:30;;;;;;;4.33;2.40;;;;;;;5.92;100.00;98753.59;5030307;28;20223;-72
2022/04/07 02:06:10;;;;;;;5.20;2.73;;;;;;;5.93;100.00;98741.47;5025447;28;20196;-72
2022/04/07 02:08:36;;;;;;;3.63;2.50;;;;;;;5.95;100.00;98734.53;5028432;28;20199;-72
2022/04/07 02:11:03;;;;;;;4.63;2.73;;;;;;;5.98;100.00;98732.72;5031636;28;20200;-71
2022/04/07 02:13:32;;;;;;;3.70;2.63;;;;;;;5.95;100.00;98724.19;5027181;28;20290;-71
2022/04/07 02:15:58;;;;;;;3.33;2.57;;;;;;;5.92;100.00;98730.31;5026242;28;20207;-72
2022/04/07 02:18:26;;;;;;;3.50;2.43;;;;;;;5.89;100.00;98722.66;5024945;28;20226;-72
2022/04/07 02:20:53;;;;;;;3.50;2.73;;;;;;;5.84;100.00;98725.44;5026466;28;20199;-73
2022/04/07 02:23:19;;;;;;;4.30;2.70;;;;;;;5.77;100.00;98723.09;5025366;28;20771;-71
2022/04/07 02:25:45;;;;;;;3.20;2.57;;;;;;;5.81;100.00;98719.53;5028168;28;21061;-72
2022/04/07 02:28:12;;;;;;;5.20;2.80;;;;;;;5.82;100.00;98714.31;5026231;28;20208;-72
2022/04/07 02:30:38;;;;;;;3.93;2.50;;;;;;;5.78;100.00;98717.88;5029326;28;20192;-71
2022/04/07 02:33:05;;;;;;;3.07;2.70;;;;;;;5.79;100.00;98713.56;5029890;28;20230;-72
2022/04/07 02:35:33;;;;;;;3.47;2.33;;;;;;;5.84;100.00;98707.31;5022556;28;20206;-71
2022/04/07 02:37:59;;;;;;;4.27;2.80;;;;;;;5.83;100.00;98713.38;5030034;28;20239;-72
2022/04/07 02:40:26;;;;;;;4.27;2.60;;;;;;;5.85;100.00;98709.00;5028389;28;20207;-72
2022/04/07 02:42:52;;;;;;;2.93;2.40;;;;;;;5.84;100.00;98706.47;5027991;28;20203;-71
2022/04/07 02:45:19;;;;;;;4.37;2.60;;;;;;;5.90;100.00;98711.41;5027254;28;20204;-72
2022/04/07 02:47:45;;;;;;;3.03;2.57;;;;;;;5.83;100.00;98713.38;5027683;28;20193;-71
2022/04/07 02:50:12;;;;;;;6.00;2.73;;;;;;;5.85;100.00;98709.00;5029492;28;20201;-72
2022/04/07 02:52:40;;;;;;;5.03;2.67;;;;;;;5.84;100.00;98715.09;5029413;28;20799;-72
2022/04/07 02:55:07;;;;;;;6.07;3.00;;;;;;;5.91;100.00;98712.25;5028152;28;20535;-72
2022/04/07 02:57:33;;;;;;;3.40;2.73;;;;;;;5.92;100.00;98699.25;5025192;28;20196;-72
2022/04/07 03:00:00;;;;;;;6.13;2.70;;;;;;;5.87;100.00;98696.00;5028249;28;20220;-72
2022/04/07 03:02:26;;;;;;;2.87;2.53;;;;;;;5.97;100.00;98699.13;5023969;28;20203;-72
2022/04/07 03:04:53;;;;;;;2.73;2.43;;;;;;;5.98;100.00;98693.91;5010334;28;20230;-72
2022/04/07 03:07:20;;;;;;;4.00;2.40;;;;;;;5.96;100.00;98689.66;5014504;28;20214;-72
2022/04/07 03:09:48;;;;;;;5.00;3.00;;;;;;;5.91;100.00;98687.25;5028527;28;20311;-72
2022/04/07 03:12:15;;;;;;;3.67;2.70;;;;;;;5.85;100.00;98692.63;5027620;28;20731;-72
2022/04/07 03:14:41;;;;;;;7.37;2.50;;;;;;;5.80;100.00;98684.22;5026251;28;20232;-72
2022/04/07 03:17:08;;;;;;;3.20;2.90;;;;;;;5.76;100.00;98682.66;5026252;28;20200;-72
2022/04/07 03:19:35;;;;;;;4.67;2.97;;;;;;;5.69;100.00;98674.28;5025981;28;20755;-72
2022/04/07 03:22:01;;;;;;;4.70;2.73;;;;;;;5.64;100.00;98671.84;5025460;28;20201;-72
2022/04/07 03:24:28;;;;;;;3.53;2.43;;;;;;;5.60;100.00;98664.28;5008043;28;20230;-72
2022/04/07 03:26:55;;;;;;;6.13;2.77;;;;;;;5.64;100.00;98671.84;5025447;28;20192;-71
2022/04/07 03:29:22;;;;;;;3.83;3.00;;;;;;;5.63;100.00;98667.59;5023405;28;20644;-72
2022/04/07 03:31:48;;;;;;;3.63;2.27;;;;;;;5.60;100.00;98666.84;5011360;28;20207;-73
2022/04/07 03:34:15;;;;;;;4.57;2.37;;;;;;;5.65;100.00;98672.72;5011247;28;20219;-72
2022/04/07 03:36:41;;;;;;;5.13;2.43;;;;;;;5.58;100.00;98669.50;5024086;28;20196;-72
2022/04/07 03:39:09;;;;;;;3.37;2.37;;;;;;;5.61;100.00;98663.34;5027435;28;20203;-72
2022/04/07 03:41:35;;;;;;;4.93;2.70;;;;;;;5.59;100.00;98662.56;5029053;28;20602;-72
2022/04/07 03:44:07;;;;;;;4.33;2.57;;;;;;;5.61;100.00;98658.19;5024475;28;20218;-72
2022/04/07 03:46:34;;;;;;;3.17;2.50;;;;;;;5.68;100.00;98657.06;5026245;28;20197;-73
2022/04/07 03:49:00;;;;;;;4.23;2.70;;;;;;;5.71;100.00;98658.69;5030050;28;20206;-72
2022/04/07 03:51:26;;;;;;;3.00;2.20;;;;;;;5.77;100.00;98659.31;5022390;28;20207;-72
2022/04/07 03:53:53;;;;;;;4.43;2.57;;;;;;;5.77;100.00;98651.56;5042323;22;20697;-72
2022/04/07 03:56:19;;;;;;;3.67;2.57;;;;;;;5.72;100.00;98656.06;5020991;28;20224;-74
2022/04/07 03:58:46;;;;;;;4.17;2.70;;;;;;;5.73;100.00;98651.72;5022976;28;20212;-72
2022/04/07 04:01:14;;;;;;;4.90;2.60;;;;;;;5.70;100.00;98642.34;5020415;28;20218;-72
2022/04/07 04:03:40;;;;;;;4.60;2.80;;;;;;;5.76;100.00;98651.63;5017182;28;20596;-72
2022/04/07 04:06:06;;;;;;;4.40;2.80;;;;;;;5.77;100.00;98648.09;5013431;28;20645;-72
2022/04/07 04:08:33;;;;;;;3.40;2.77;;;;;;;5.79;100.00;98636.00;5001577;28;20192;-72
2022/04/07 04:10:59;;;;;;;2.60;2.40;;;;;;;5.75;100.00;98644.75;4993753;28;20287;-73
2022/04/07 04:13:28;;;;;;;5.47;3.23;;;;;;;5.74;100.00;98638.75;4992660;28;20236;-73
2022/04/07 04:15:55;;;;;;;3.60;2.80;;;;;;;5.79;100.00;98631.66;5009881;28;20201;-73
2022/04/07 04:18:23;;;;;;;3.67;2.80;;;;;;;5.80;100.00;98629.91;5011181;28;20209;-73
2022/04/07 04:20:49;;;;;;;4.37;2.80;;;;;;;5.86;100.00;98632.25;5007854;28;20202;-72
2022/04/07 04:23:16;;;;;;;5.53;2.87;;;;;;;5.87;100.00;98628.75;5009518;28;20239;-75
2022/04/07 04:25:42;;;;;;;4.67;2.70;;;;;;;5.87;100.00;98624.44;5007510;28;20192;-74
2022/04/07 04:28:08;;;;;;;3.47;2.70;;;;;;;5.80;100.00;98615.22;5006580;28;20203;-73
2022/04/07 04:30:35;;;;;;;3.87;2.80;;;;;;;5.82;100.00;98615.16;5008198;28;20206;-73
2022/04/07 04:33:02;;;;;;;4.53;2.80;;;;;;;5.82;100.00;98615.16;5008370;28;20315;-73
2022/04/07 04:35:29;;;;;;;7.27;2.70;;;;;;;5.90;100.00;98612.28;5008347;28;20569;-73
2022/04/07 04:37:56;;;;;;;3.37;2.80;;;;;;;5.92;100.00;98610.47;5007012;28;20561;-72
2022/04/07 04:40:22;;;;;;;4.67;2.80;;;;;;;5.90;100.00;98612.28;5014728;28;20802;-72
2022/04/07 04:42:48;;;;;;;4.37;2.50;;;;;;;5.93;100.00;98612.16;5013957;28;20553;-72
2022/04/07 04:45:15;;;;;;;4.20;2.90;;;;;;;5.91;100.00;98611.38;4998901;28;20242;-73
2022/04/07 04:47:41;;;;;;;3.80;2.83;;;;;;;5.94;100.00;98603.50;5003933;28;20200;-73
2022/04/07 04:50:08;;;;;;;5.13;3.23;;;;;;;5.96;100.00;98596.53;5016180;28;20614;-73
2022/04/07 04:52:36;;;;;;;3.87;2.90;;;;;;;6.04;100.00;98602.28;5008622;28;20243;-73
2022/04/07 04:55:02;;;;;;;3.77;2.90;;;;;;;6.11;100.00;98595.94;5013919;28;20718;-73
2022/04/07 04:57:29;;;;;;;2.90;2.50;;;;;;;6.17;100.00;98589.66;5002057;28;20554;-73
2022/04/07 04:59:55;;;;;;;3.80;2.87;;;;;;;6.23;100.00;98586.84;5009548;28;20297;-73
2022/04/07 05:02:21;;;;;;;4.37;2.83;;;;;;;6.27;100.00;98583.22;5007249;28;20204;-74
2022/04/07 05:04:48;;;;;;;5.33;2.87;;;;;;;6.31;100.00;98578.75;5006550;28;20220;-73
2022/04/07 05:07:14;;;;;;;3.80;2.90;;;;;;;6.40;100.00;98576.66;5007207;28;20212;-73
2022/04/07 05:09:42;;;;;;;6.00;3.37;;;;;;;6.56;100.00;98571.66;5012432;28;20188;-73
2022/04/07 05:12:08;;;;;;;11.33;6.00;;;;;;;6.70;100.00;98567.63;5006126;28;20545;-72
2022/04/07 05:14:35;;;;;;;4.87;4.07;;;;;;;6.83;100.00;98572.22;5006088;28;20248;-73
2022/04/07 05:17:01;;;;;;;6.73;3.80;;;;;;;6.91;100.00;98564.13;5008341;28;20197;-72
2022/04/07 05:19:28;;;;;;;4.00;3.30;;;;;;;6.95;100.00;98562.25;4994722;28;20220;-72
2022/04/07 05:21:54;;;;;;;5.40;4.00;;;;;;;7.01;100.00;98559.38;5006767;28;20204;-73
2022/04/07 05:24:21;;;;;;;4.53;3.17;;;;;;;7.08;100.00;98554.75;5006792;28;20224;-73
2022/04/07 05:26:48;;;;;;;5.00;3.60;;;;;;;7.19;100.00;98549.91;5005933;28;20200;-73
2022/04/07 05:29:15;;;;;;;4.40;3.70;;;;;;;7.20;100.00;98554.19;5003986;28;20560;-73
2022/04/07 05:31:41;;;;;;;6.37;3.90;;;;;;;7.29;100.00;98551.19;5008831;28;20188;-73
2022/04/07 05:34:08;;;;;;;6.07;3.10;;;;;;;7.38;100.00;98549.94;5009805;28;20239;-73
2022/04/07 05:36:34;;;;;;;6.47;4.43;;;;;;;7.46;100.00;98547.81;5008387;28;20312;-73
2022/04/07 05:39:00;;;;;;;3.17;2.67;;;;;;;7.52;100.00;98544.09;5009871;28;20199;-73
2022/04/07 05:41:27;;;;;;;3.07;2.27;;;;;;;7.62;100.00;98547.94;5011805;28;20569;-73
2022/04/07 05:43:54;;;;;;;2.97;2.50;;;;;;;7.73;100.00;98543.09;5011852;28;20663;-73
2022/04/07 05:46:21;;;;;;;2.70;2.30;;;;;;;7.86;100.00;98547.69;5008752;28;20199;-73
2022/04/07 05:48:47;;;;;;;3.17;2.33;;;;;;;7.92;100.00;98540.44;5010667;28;20684;-73
2022/04/07 05:51:13;;;;;;;2.73;2.40;;;;;;;8.05;100.00;98548.47;5006535;28;20211;-73
2022/04/07 05:53:40;;;;;;;2.33;2.00;;;;;;;8.14;100.00;98544.59;5012662;28;20244;-73
2022/04/07 05:56:07;;;;;;;3.30;2.50;;;;;;;8.19;100.00;98554.75;5003619;28;20212;-72
2022/04/07 05:58:33;;;;;;;2.60;2.17;;;;;;;8.32;100.00;98546.28;5005921;28;20831;-73
2022/04/07 06:01:01;;;;;;;2.37;1.90;;;;;;;8.42;100.00;98548.41;5011399;28;20600;-73
2022/04/07 06:03:28;;;;;;;3.63;2.03;;;;;;;8.48;100.00;98538.59;5011460;28;20255;-73
2022/04/07 06:05:54;;;;;;;4.27;2.07;;;;;;;8.56;100.00;98543.38;5009799;28;20697;-73
2022/04/07 06:08:21;;;;;;;3.67;2.03;;;;;;;8.61;100.00;98538.81;5007299;28;20208;-73
2022/04/07 06:10:48;;;;;;;3.00;1.80;;;;;;;8.70;99.85;98537.50;5013000;28;20571;-72
2022/04/07 06:13:14;;;;;;;2.20;2.00;;;;;;;8.78;99.18;98531.91;5004540;28;20197;-73
2022/04/07 06:15:41;;;;;;;3.17;1.90;;;;;;;8.85;98.65;98526.31;5009204;28;20202;-73
2022/04/07 06:18:09;;;;;;;2.20;1.77;;;;;;;8.94;98.14;98526.75;5005051;28;20563;-73
2022/04/07 06:20:36;;;;;;;2.03;1.60;;;;;;;9.02;97.57;98525.44;5012928;28;20215;-73
2022/04/07 06:23:02;;;;;;;2.73;1.80;;;;;;;9.07;97.38;98519.97;5003470;28;20220;-73
2022/04/07 06:25:29;;;;;;;2.83;1.97;;;;;;;9.16;96.78;98522.06;5014991;28;20218;-73
2022/04/07 06:27:56;;;;;;;3.07;1.87;;;;;;;9.22;96.57;98526.94;5011331;28;20209;-73
2022/04/07 06:30:23;;;;;;;1.70;1.50;;;;;;;9.28;95.35;98510.16;5010441;28;20218;-71
2022/04/07 06:32:49;;;;;;;2.17;1.80;;;;;;;9.31;95.09;98517.81;5015303;28;20209;-72
2022/04/07 06:35:17;;;;;;;1.70;1.60;;;;;;;9.33;94.48;98515.97;5013057;28;20227;-72
2022/04/07 06:37:51;;;;;;;2.53;1.90;;;;;;;9.35;94.90;98510.69;5012950;28;20218;-71
2022/04/07 06:40:20;;;;;;;1.77;1.60;;;;;;;9.38;93.52;98511.34;5010091;28;20988;-72
2022/04/07 06:42:47;;;;;;;2.37;1.40;;;;;;;9.44;93.39;98507.56;5013808;28;20200;-72
2022/04/07 06:45:13;;;;;;;2.30;1.63;;;;;;;9.55;93.43;98507.81;5010142;28;20889;-72
2022/04/07 06:47:40;;;;;;;2.63;1.47;;;;;;;9.65;91.89;98508.13;4994599;28;20207;-72
2022/04/07 06:50:10;;;;;;;3.37;1.60;;;;;;;9.80;90.77;98496.88;5013465;28;20199;-72
2022/04/07 06:52:38;;;;;;;3.10;1.40;;;;;;;9.91;89.64;98495.44;5014522;28;20232;-72
2022/04/07 06:55:05;;;;;;;1.73;1.30;;;;;;;10.03;87.89;98492.94;5013389;28;20224;-72
2022/04/07 06:57:32;;;;;;;1.73;1.50;;;;;;;10.20;88.88;98491.97;5010322;28;20204;-72
2022/04/07 06:59:58;;;;;;;1.70;1.20;;;;;;;10.45;86.53;98479.28;5017635;28;20224;-72
2022/04/07 07:02:24;;;;;;;1.73;1.10;;;;;;;10.58;85.04;98488.06;5009424;28;20201;-72
2022/04/07 07:04:51;;;;;;;2.37;1.47;;;;;;;10.60;85.34;98487.00;5019669;28;20238;-72
2022/04/07 07:07:17;;;;;;;1.87;1.20;;;;;;;10.70;83.35;98484.72;5009676;28;20206;-72
2022/04/07 07:09:46;;;;;;;1.50;1.37;;;;;;;10.82;83.76;98477.06;5012479;28;20212;-72
2022/04/07 07:12:13;;;;;;;1.20;1.00;;;;;;;10.93;84.73;98474.66;5013880;28;20573;-72
2022/04/07 07:14:39;;;;;;;2.13;1.27;;;;;;;10.96;80.69;98477.06;5008972;28;20224;-72
2022/04/07 07:17:07;;;;;;;1.97;1.00;;;;;;;11.01;81.90;98480.22;5014212;28;20216;-71
2022/04/07 07:19:33;;;;;;;1.43;1.20;;;;;;;11.02;80.22;98474.06;5007302;28;20284;-71
2022/04/07 07:21:59;;;;;;;1.50;1.03;;;;;;;11.07;80.08;98458.97;5015671;28;20199;-71
2022/04/07 07:24:26;;;;;;;2.13;0.97;;;;;;;11.17;81.84;98464.47;5013720;28;20223;-72
2022/04/07 07:26:54;;;;;;;2.23;1.00;;;;;;;11.23;79.75;98466.66;5014293;28;20203;-72
2022/04/07 07:29:20;;;;;;;2.80;1.13;;;;;;;11.35;81.25;98463.28;5009307;28;20213;-71
2022/04/07 07:31:46;;;;;;;2.50;1.10;;;;;;;11.46;80.19;98457.38;5028205;28;20200;-71
2022/04/07 07:34:13;;;;;;;1.33;0.80;;;;;;;11.59;78.17;98456.59;5019361;28;20435;-71
2022/04/07 07:36:39;;;;;;;1.23;0.97;;;;;;;11.61;77.55;98452.09;5012914;28;20211;-71
2022/04/07 07:39:07;;;;;;;3.50;1.60;;;;;;;11.69;78.52;98460.28;5016197;28;20208;-71
2022/04/07 07:41:33;;;;;;;1.30;1.10;;;;;;;11.69;79.07;98447.22;5023223;28;20693;-71
2022/04/07 07:44:01;;;;;;;3.40;1.47;;;;;;;11.71;78.65;98430.53;5018040;28;20249;-71
2022/04/07 07:46:30;;;;;;;1.97;1.30;;;;;;;11.79;79.32;98443.09;5015841;28;20211;-71
2022/04/07 07:48:56;;;;;;;1.07;0.83;;;;;;;11.89;79.14;98431.09;5018414;28;20208;-71
2022/04/07 07:51:23;;;;;;;2.57;1.10;;;;;;;11.99;77.57;98443.56;5016623;28;20204;-71
2022/04/07 07:53:49;;;;;;;1.53;1.30;;;;;;;11.99;77.01;98422.69;5016826;28;20250;-71
2022/04/07 07:56:16;;;;;;;5.40;2.03;;;;;;;12.02;77.95;98414.63;5018737;28;20657;-71
2022/04/07 07:58:42;;;;;;;3.60;1.17;;;;;;;11.95;76.61;98416.81;5016202;28;20204;-71
2022/04/07 08:01:10;;;;;;;5.20;2.90;;;;;;;11.96;77.04;98425.47;5014271;28;20225;-71
2022/04/07 08:03:36;;;;;;;3.23;1.50;;;;;;;11.95;76.62;98426.44;5015122;28;20236;-72
2022/04/07 08:06:03;;;;;;;4.17;2.50;;;;;;;11.91;75.85;98412.75;5012778;28;20268;-71
2022/04/07 08:08:30;;;;;;;2.30;1.57;;;;;;;11.99;75.98;98409.63;5021694;28;20197;-71
2022/04/07 08:10:57;;;;;;;2.83;1.90;;;;;;;11.99;75.21;98396.56;5020653;28;20197;-71
2022/04/07 08:13:23;;;;;;;0.73;0.73;;;;;;;12.15;77.29;98391.97;5013653;28;20232;-71
2022/04/07 08:15:50;;;;;;;3.50;2.03;;;;;;;12.24;76.70;98387.88;5012669;28;20208;-71
2022/04/07 08:18:17;;;;;;;1.57;0.80;;;;;;;12.34;76.28;98395.94;5013356;28;20200;-71
2022/04/07 08:20:44;;;;;;;2.27;0.97;;;;;;;12.30;74.77;98400.53;5010536;28;20206;-72
2022/04/07 08:23:11;;;;;;;2.00;0.70;;;;;;;12.36;74.51;98407.13;5008430;28;20205;-72
2022/04/07 08:25:37;;;;;;;3.10;0.70;;;;;;;12.25;73.23;98406.06;5007980;28;20289;-71
2022/04/07 08:28:04;;;;;;;2.07;0.80;;;;;;;12.20;73.94;98402.94;4990441;28;20977;-72
2022/04/07 08:30:34;;;;;;;1.27;0.60;;;;;;;12.17;74.41;98397.94;5007110;28;20229;-72
2022/04/07 08:33:00;;;;;;;0.70;0.70;;;;;;;12.10;74.73;98392.28;5006180;28;20665;-71
2022/04/07 08:35:28;;;;;;;0.60;0.60;;;;;;;12.14;75.03;98379.84;5008778;28;20268;-72
2022/04/07 08:37:55;;;;;;;0.70;0.70;;;;;;;12.07;74.40;98386.44;5013934;28;20197;-71
2022/04/07 08:40:22;;;;;;;1.67;1.00;;;;;;;12.02;73.31;98386.75;5012702;28;20212;-72
2022/04/07 08:42:49;;;;;;;0.67;0.67;;;;;;;12.15;74.61;98357.19;5008400;28;20215;-72
2022/04/07 08:45:15;;;;;;;1.23;0.77;;;;;;;12.28;73.71;98345.78;5002375;28;20225;-71
2022/04/07 08:47:42;;;;;;;0.67;0.67;;;;;;;12.44;75.23;98349.94;5009689;28;20281;-71
2022/04/07 08:50:11;;;;;;;2.67;0.80;;;;;;;12.60;72.65;98345.28;5015007;28;20196;-71
2022/04/07 08:52:40;;;;;;;0.80;0.63;;;;;;;12.65;71.68;98342.38;5006667;28;20580;-71
2022/04/07 08:55:08;;;;;;;1.27;0.60;;;;;;;12.63;73.16;98334.63;5012100;28;20236;-72
2022/04/07 08:57:37;;;;;;;1.13;0.77;;;;;;;12.52;72.51;98328.50;5009856;28;20203;-71
2022/04/07 09:00:06;;;;;;;1.13;0.70;;;;;;;12.64;73.38;98320.59;5011960;28;20204;-72
2022/04/07 09:02:32;;;;;;;1.10;0.93;;;;;;;12.76;71.57;98329.34;5006937;28;20680;-72
2022/04/07 09:04:59;;;;;;;1.07;0.90;;;;;;;12.92;71.30;98323.03;5010663;28;20830;-71
2022/04/07 09:07:31;;;;;;;2.67;0.77;;;;;;;12.79;71.93;98318.69;5012044;28;20208;-72
2022/04/07 09:10:00;;;;;;;0.97;0.70;;;;;;;12.76;71.44;98318.06;5008874;28;20225;-72
2022/04/07 09:12:27;;;;;;;1.07;0.67;;;;;;;12.95;70.52;98305.34;5005493;28;20234;-71
2022/04/07 09:14:56;;;;;;;1.53;0.60;;;;;;;13.04;71.46;98316.91;5010296;28;20789;-72
2022/04/07 09:17:23;;;;;;;2.73;0.80;;;;;;;13.08;71.44;98308.69;5006206;28;20604;-71
2022/04/07 09:19:50;;;;;;;2.27;0.53;;;;;;;13.09;71.91;98299.09;5007872;28;20205;-72
2022/04/07 09:22:17;;;;;;;3.67;0.80;;;;;;;13.16;70.02;98295.09;5005534;28;20212;-72
2022/04/07 09:24:43;;;;;;;0.80;0.80;;;;;;;13.34;71.69;98295.53;5011860;28;20227;-72
2022/04/07 09:27:12;;;;;;;1.97;0.60;;;;;;;13.47;71.13;98302.47;5010004;28;20208;-71
2022/04/07 09:29:40;;;;;;;2.10;0.70;;;;;;;13.52;70.27;98295.09;5008992;28;20603;-72
2022/04/07 09:32:17;;;;;;;0.63;0.50;;;;;;;13.37;69.33;98282.22;5008000;28;20662;-72
2022/04/07 09:34:45;;;;;;;1.27;0.50;;;;;;;13.41;69.62;98281.03;5010121;28;20215;-71
2022/04/07 09:37:12;;;;;;;0.60;0.60;;;;;;;13.50;70.01;98268.22;5008295;28;20210;-71
2022/04/07 09:39:39;;;;;;;0.40;0.40;;;;;;;13.75;68.72;98261.94;5007580;28;20198;-71
2022/04/07 09:42:25;;;;;;;7.27;0.80;;;;;;;13.75;67.28;98270.59;5012873;28;20302;-71
2022/04/07 09:44:53;;;;;;;0.83;0.60;;;;;;;13.99;67.81;98249.56;5010481;28;20226;-72
2022/04/07 09:47:20;;;;;;;1.60;0.50;;;;;;;14.25;68.40;98243.22;5007729;28;20213;-72
2022/04/07 09:49:48;;;;;;;1.00;0.50;;;;;;;14.12;66.75;98243.34;5006858;28;20208;-71
2022/04/07 09:52:15;;;;;;;0.83;0.40;;;;;;;13.95;66.42;98236.84;5010094;28;20253;-71
2022/04/07 09:54:42;;;;;;;1.07;0.40;;;;;;;13.79;64.11;98243.25;5030718;23;20254;-73
2022/04/07 09:57:10;;;;;;;1.23;0.60;;;;;;;13.85;65.01;98236.69;5020640;28;20203;-73
2022/04/07 09:59:40;;;;;;;0.93;0.60;;;;;;;13.95;64.54;98240.28;5026505;28;20207;-73
2022/04/07 10:02:06;;;;;;;0.73;0.50;;;;;;;13.92;63.49;98224.78;5028288;28;20208;-73
2022/04/07 10:04:34;;;;;;;0.97;0.47;;;;;;;13.84;63.43;98216.69;5010468;28;20231;-73
2022/04/07 10:07:02;;;;;;;0.53;0.50;;;;;;;13.80;63.37;98223.94;5004133;28;20665;-73
2022/04/07 10:09:30;;;;;;;0.40;0.40;;;;;;;13.83;63.31;98210.63;5007627;28;20620;-73
2022/04/07 10:11:57;;;;;;;1.83;0.53;;;;;;;13.82;62.22;98216.84;5008338;28;20267;-74
2022/04/07 10:14:24;;;;;;;0.40;0.40;;;;;;;13.78;62.59;98207.53;5002454;28;20224;-74
2022/04/07 10:16:52;;;;;;;1.03;0.50;;;;;;;13.69;62.25;98203.00;5006968;28;20459;-73
2022/04/07 10:19:22;;;;;;;3.80;0.80;;;;;;;13.80;63.26;98192.53;5002846;28;20677;-73
2022/04/07 10:22:05;;;;;;;1.03;0.40;;;;;;;13.78;62.48;98181.34;5007500;28;20220;-73
2022/04/07 10:24:34;;;;;;;1.57;0.40;;;;;;;13.92;61.63;98175.03;5005247;28;20676;-73
2022/04/07 10:27:02;;;;;;;1.17;0.43;;;;;;;14.09;62.92;98167.59;5005525;28;20207;-73
2022/04/07 10:29:30;;;;;;;0.50;0.50;;;;;;;14.49;63.33;98156.53;5003636;28;20204;-73
2022/04/07 10:32:21;;;;;;;0.70;0.50;;;;;;;14.64;62.15;98155.31;5001608;28;20799;-74
2022/04/07 10:34:56;;;;;;;5.70;0.50;;;;;;;14.45;59.39;98168.25;5004926;28;20224;-73
2022/04/07 10:37:42;;;;;;;0.60;0.60;;;;;;;14.57;58.06;98149.72;5005849;28;20277;-74
2022/04/07 10:40:34;;;;;;;1.03;0.67;;;;;;;14.49;57.43;98141.66;5001687;28;20694;-73
2022/04/07 10:43:18;;;;;;;0.40;0.40;;;;;;;14.34;59.00;98148.16;5005747;28;20215;-73
2022/04/07 10:45:46;;;;;;;0.40;0.40;;;;;;;14.44;58.86;98140.34;4999095;28;20217;-73
2022/04/07 10:48:18;;;;;;;0.47;0.30;;;;;;;14.39;58.24;98117.16;5004963;28;20212;-73
2022/04/07 10:50:48;;;;;;;0.40;0.40;;;;;;;14.43;58.64;98104.63;4995223;28;21820;-73
2022/04/07 10:53:19;;;;;;;1.43;0.40;;;;;;;14.43;57.52;98126.41;5000674;28;20203;-73
2022/04/07 10:56:05;;;;;;;0.90;0.50;;;;;;;14.74;58.26;98106.41;4996978;28;20614;-73
2022/04/07 10:58:54;;;;;;;0.50;0.50;;;;;;;15.11;57.83;98092.81;5006015;28;20211;-73
2022/04/07 11:01:57;;;;;;;1.40;0.37;;;;;;;15.05;55.84;98100.38;4996459;28;20221;-73
2022/04/07 11:05:10;;;;;;;0.40;0.40;;;;;;;14.90;56.03;98092.84;4999777;28;20835;-73
2022/04/07 11:07:38;;;;;;;1.60;0.60;;;;;;;14.81;57.15;98082.28;4996033;28;20207;-73
2022/04/07 11:13:01;;;;;;;1.27;0.57;;;;;;;14.49;55.92;98072.66;4977993;28;20902;-73
2022/04/07 11:15:34;;;;;;;3.97;0.70;;;;;;;14.48;57.16;98055.28;5000039;28;20219;-73
2022/04/07 11:18:23;;;;;;;3.53;0.70;;;;;;;14.54;57.13;98055.56;5000159;28;20209;-74
2022/04/07 11:21:09;;;;;;;1.77;0.40;;;;;;;14.51;58.34;98037.50;5000838;28;20200;-72
2022/04/07 11:23:43;;;;;;;3.97;0.70;;;;;;;14.60;57.21;98037.69;4998370;28;20205;-71
2022/04/07 11:26:11;;;;;;;2.63;0.70;;;;;;;14.64;57.49;98026.00;5000634;28;20267;-72
2022/04/07 11:28:38;;;;;;;4.03;0.53;;;;;;;14.56;56.53;98019.59;4997849;28;20231;-72
2022/04/07 11:31:05;;;;;;;2.77;0.47;;;;;;;14.51;55.37;98034.03;4986785;28;20220;-72
2022/04/07 11:33:36;;;;;;;3.93;0.80;;;;;;;14.42;56.65;98022.50;4995039;28;20205;-72
2022/04/07 11:36:15;;;;;;;0.83;0.53;;;;;;;14.43;57.72;98005.00;5002077;28;20197;-72
2022/04/07 11:38:46;;;;;;;0.40;0.40;;;;;;;14.39;58.31;98012.31;5002527;28;20219;-72
2022/04/07 11:41:14;;;;;;;0.90;0.60;;;;;;;14.19;57.69;97993.84;5000623;28;20220;-72